DataTemp.
Ø
Temp.
Max
Temp.
Min
UmiditàPressionePioggiaVento
Ø
Vento
dir. Ø
Vento
Max
Indice UV
Max
21.01.2019 00:00-4.1°C-4.1°C-4.2°C70.0%1015.0hPa0.0mm1.1km/hWSW1.8km/h0uvi
21.01.2019 00:05-4.2°C-4.2°C-4.2°C70.0%1015.7hPa0.0mm1.1km/hSSW2.5km/h0uvi
21.01.2019 00:10-4.2°C-4.2°C-4.2°C71.0%1016.0hPa0.0mm1.8km/hSSW2.5km/h0uvi
21.01.2019 00:15-4.2°C-4.2°C-4.2°C71.0%1016.0hPa0.0mm1.7km/hWSW2.5km/h0uvi
21.01.2019 00:20-4.2°C-4.2°C-4.3°C72.0%1016.0hPa0.0mm1.7km/hSSW2.5km/h0uvi
21.01.2019 00:25-4.3°C-4.3°C-4.4°C72.0%1016.0hPa0.0mm1.1km/hSSW2.2km/h0uvi
21.01.2019 00:30-4.3°C-4.3°C-4.4°C71.0%1016.0hPa0.0mm0.5km/hWSW2.2km/h0uvi
21.01.2019 00:35-4.3°C-4.3°C-4.3°C72.0%1016.0hPa0.0mm0.6km/hSSW2.5km/h0uvi
21.01.2019 00:40-4.3°C-4.3°C-4.3°C72.0%1016.0hPa0.0mm1.2km/hSSW2.5km/h0uvi
21.01.2019 00:45-4.4°C-4.3°C-4.4°C72.3%1015.9hPa0.0mm1.9km/hSSW2.5km/h0uvi
21.01.2019 00:50-4.5°C-4.5°C-4.5°C73.0%1015.0hPa0.0mm1.0km/hSSW3.2km/h0uvi
21.01.2019 00:55-4.5°C-4.5°C-4.5°C73.0%1015.0hPa0.0mm1.3km/hSSW3.2km/h0uvi
21.01.2019 01:00-4.5°C-4.5°C-4.5°C73.0%1015.0hPa0.0mm0.8km/hWSW2.2km/h0uvi
21.01.2019 01:05-4.4°C-4.4°C-4.4°C73.0%1015.0hPa0.0mm0.0km/hWSW1.4km/h0uvi
21.01.2019 01:10-4.4°C-4.4°C-4.4°C73.0%1015.0hPa0.0mm0.0km/hWSW2.5km/h0uvi
21.01.2019 01:15-4.4°C-4.4°C-4.4°C73.0%1015.1hPa0.0mm1.2km/hWSW2.5km/h0uvi
21.01.2019 01:20-4.4°C-4.4°C-4.5°C73.0%1016.0hPa0.0mm0.6km/hWSW2.2km/h0uvi
21.01.2019 01:25-4.5°C-4.5°C-4.5°C72.0%1016.0hPa0.0mm0.0km/hWSW2.5km/h0uvi
21.01.2019 01:30-4.5°C-4.5°C-4.6°C72.0%1016.0hPa0.0mm0.6km/hWSW1.8km/h0uvi
21.01.2019 01:35-4.6°C-4.6°C-4.7°C72.0%1016.0hPa0.0mm0.6km/hWSW1.8km/h0uvi
21.01.2019 01:40-4.7°C-4.7°C-4.7°C72.0%1016.0hPa0.0mm0.0km/hWSW1.8km/h0uvi
21.01.2019 01:45-4.8°C-4.8°C-4.8°C71.2%1016.0hPa0.0mm0.0km/hWNW1.8km/h0uvi
21.01.2019 01:50-4.8°C-4.8°C-4.8°C71.5%1016.0hPa0.0mm1.1km/hWSW2.5km/h0uvi
21.01.2019 01:55-4.8°C-4.8°C-4.9°C73.0%1016.0hPa0.0mm1.3km/hWSW3.6km/h0uvi
21.01.2019 02:00-4.9°C-4.9°C-4.9°C73.8%1016.0hPa0.0mm2.2km/hSSW3.6km/h0uvi
21.01.2019 02:05-5.0°C-4.9°C-5.0°C74.6%1016.0hPa0.0mm1.7km/hWSW4.7km/h0uvi
21.01.2019 02:10-4.9°C-4.9°C-5.0°C75.0%1016.0hPa0.0mm1.3km/hWSW3.6km/h0uvi
21.01.2019 02:15-4.9°C-4.9°C-4.9°C75.0%1016.0hPa0.0mm0.0km/hWSW1.8km/h0uvi
21.01.2019 02:20-4.9°C-4.9°C-4.9°C75.0%1016.0hPa0.0mm0.9km/hSSW2.5km/h0uvi
21.01.2019 02:25-4.9°C-4.8°C-4.9°C75.0%1016.0hPa0.0mm2.0km/hSSW2.5km/h0uvi
21.01.2019 02:30-4.8°C-4.8°C-4.8°C75.0%1016.0hPa0.0mm0.9km/hSSW2.2km/h0uvi
21.01.2019 02:35-4.7°C-4.7°C-4.7°C75.0%1016.0hPa0.0mm0.0km/hWSW1.4km/h0uvi
21.01.2019 02:40-4.7°C-4.7°C-4.7°C75.0%1016.0hPa0.0mm0.0km/hWSW2.2km/h0uvi
21.01.2019 02:45-4.7°C-4.7°C-4.7°C75.0%1016.0hPa0.0mm1.3km/hWSW2.2km/h0uvi
21.01.2019 02:50-4.7°C-4.7°C-4.7°C75.0%1016.0hPa0.0mm1.6km/hWSW2.5km/h0uvi
21.01.2019 02:55-4.8°C-4.8°C-4.8°C74.8%1016.0hPa0.0mm1.6km/hWSW2.5km/h0uvi
21.01.2019 03:00-4.9°C-4.9°C-5.0°C74.0%1016.0hPa0.0mm1.4km/hSSW1.8km/h0uvi
21.01.2019 03:05-5.1°C-5.0°C-5.1°C74.3%1016.0hPa0.0mm2.1km/hSSW3.2km/h0uvi
21.01.2019 03:10-5.2°C-5.1°C-5.2°C75.0%1016.0hPa0.0mm0.4km/hWSW1.8km/h0uvi
21.01.2019 03:15-5.2°C-5.2°C-5.2°C75.0%1016.0hPa0.0mm0.6km/hWSW2.5km/h0uvi
21.01.2019 03:20-5.2°C-5.2°C-5.2°C75.0%1016.0hPa0.0mm1.9km/hSSW2.5km/h0uvi
21.01.2019 03:25-5.3°C-5.3°C-5.3°C75.0%1016.0hPa0.0mm1.2km/hWSW2.2km/h0uvi
21.01.2019 03:30-5.3°C-5.3°C-5.3°C75.0%1016.0hPa0.0mm0.0km/hWSW1.8km/h0uvi
21.01.2019 03:35-5.3°C-5.3°C-5.3°C75.0%1016.0hPa0.0mm1.0km/hWSW1.8km/h0uvi
21.01.2019 03:40-5.3°C-5.3°C-5.3°C75.0%1016.0hPa0.0mm0.7km/hWSW1.8km/h0uvi
21.01.2019 03:45-5.3°C-5.3°C-5.3°C75.7%1016.0hPa0.0mm1.6km/hWSW2.5km/h0uvi
21.01.2019 03:50-5.4°C-5.4°C-5.4°C76.0%1016.0hPa0.0mm1.4km/hWSW2.5km/h0uvi
21.01.2019 03:55-5.5°C-5.5°C-5.5°C76.0%1016.0hPa0.0mm1.1km/hWSW3.2km/h0uvi
21.01.2019 04:00-5.5°C-5.5°C-5.5°C76.0%1016.0hPa0.0mm1.8km/hSSW3.2km/h0uvi
21.01.2019 04:05-5.5°C-5.5°C-5.5°C77.0%1016.0hPa0.0mm1.8km/hSSW3.6km/h0uvi
21.01.2019 04:10-5.5°C-5.4°C-5.5°C77.5%1016.0hPa0.0mm1.6km/hSSW2.5km/h0uvi
21.01.2019 04:15-5.3°C-5.3°C-5.4°C78.2%1016.0hPa0.0mm1.6km/hSSW2.5km/h0uvi
21.01.2019 04:20-5.3°C-5.3°C-5.3°C79.0%1016.0hPa0.0mm1.7km/hSSW2.2km/h0uvi
21.01.2019 04:25-5.2°C-5.1°C-5.3°C78.8%1016.0hPa0.0mm0.9km/hWSW2.5km/h0uvi
21.01.2019 04:30-5.1°C-5.1°C-5.1°C78.0%1016.0hPa0.0mm0.2km/hWSW1.8km/h0uvi
21.01.2019 04:35-5.1°C-5.1°C-5.1°C78.0%1016.0hPa0.0mm0.2km/hNW1.8km/h0uvi
21.01.2019 04:40-5.3°C-5.3°C-5.4°C77.0%1016.0hPa0.0mm1.0km/hNW2.2km/h0uvi
21.01.2019 04:45-5.5°C-5.4°C-5.5°C76.0%1016.0hPa0.0mm1.1km/hWSW3.2km/h0uvi
21.01.2019 04:50-5.6°C-5.5°C-5.6°C76.0%1016.0hPa0.0mm1.4km/hSSW2.2km/h0uvi
21.01.2019 04:55-5.6°C-5.6°C-5.6°C76.6%1016.0hPa0.0mm2.4km/hSSW3.6km/h0uvi
21.01.2019 05:00-5.7°C-5.6°C-5.7°C77.0%1015.9hPa0.0mm1.8km/hWSW2.2km/h0uvi
21.01.2019 05:05-5.7°C-5.7°C-5.7°C77.0%1015.0hPa0.0mm0.7km/hWSW2.5km/h0uvi
21.01.2019 05:10-5.7°C-5.7°C-5.7°C77.0%1015.0hPa0.0mm0.9km/hWSW2.5km/h0uvi
21.01.2019 05:15-5.7°C-5.7°C-5.7°C77.0%1015.2hPa0.0mm0.3km/hWNW2.2km/h0uvi
21.01.2019 05:20-5.7°C-5.7°C-5.7°C77.0%1017.0hPa0.0mm1.0km/hWSW3.2km/h0uvi
21.01.2019 05:25-5.6°C-5.6°C-5.6°C78.3%1017.0hPa0.0mm1.8km/hWSW3.2km/h0uvi
21.01.2019 05:30-5.5°C-5.4°C-5.5°C79.0%1016.9hPa0.0mm0.3km/hWSW1.8km/h0uvi
21.01.2019 05:35-5.4°C-5.4°C-5.5°C79.0%1016.0hPa0.0mm1.0km/hWNW4.3km/h0uvi
21.01.2019 05:40-5.4°C-5.4°C-5.4°C79.0%1016.0hPa0.0mm1.6km/hNW4.0km/h0uvi
21.01.2019 05:45-5.4°C-5.4°C-5.4°C79.0%1016.0hPa0.0mm0.9km/hNW2.5km/h0uvi
21.01.2019 05:50-5.4°C-5.4°C-5.4°C79.0%1016.0hPa0.0mm0.0km/hWNW1.8km/h0uvi
21.01.2019 05:55-5.4°C-5.4°C-5.4°C79.0%1016.0hPa0.0mm0.8km/hWSW3.6km/h0uvi
21.01.2019 06:00-5.4°C-5.4°C-5.4°C79.0%1016.0hPa0.0mm2.1km/hWSW4.3km/h0uvi
21.01.2019 06:05-5.3°C-5.3°C-5.4°C79.0%1016.0hPa0.0mm1.3km/hWSW3.2km/h0uvi
21.01.2019 06:10-5.3°C-5.3°C-5.3°C79.0%1016.0hPa0.0mm0.0km/hWSW1.8km/h0uvi
21.01.2019 06:15-5.2°C-5.1°C-5.2°C79.0%1016.0hPa0.0mm0.7km/hWSW2.2km/h0uvi
21.01.2019 06:20-5.1°C-5.1°C-5.1°C79.0%1016.0hPa0.0mm0.3km/hWSW4.0km/h0uvi
21.01.2019 06:25-5.0°C-5.0°C-5.1°C79.6%1016.0hPa0.0mm1.6km/hWSW4.0km/h0uvi
21.01.2019 06:30-5.0°C-5.0°C-5.0°C80.0%1016.0hPa0.0mm1.2km/hWSW4.0km/h0uvi
21.01.2019 06:35-5.0°C-4.9°C-5.0°C79.2%1016.0hPa0.0mm0.9km/hNW3.2km/h0uvi
21.01.2019 06:40-4.9°C-4.8°C-4.9°C79.0%1016.0hPa0.0mm1.2km/hNW3.2km/h0uvi
21.01.2019 06:45-4.8°C-4.8°C-4.8°C79.0%1016.0hPa0.0mm1.4km/hNW4.0km/h0uvi
21.01.2019 06:50-4.8°C-4.8°C-4.9°C78.8%1016.0hPa0.0mm1.2km/hWSW3.2km/h0uvi
21.01.2019 06:55-4.9°C-4.9°C-4.9°C78.0%1016.0hPa0.0mm1.4km/hNW3.2km/h0uvi
21.01.2019 07:00-4.8°C-4.8°C-4.8°C78.0%1016.0hPa0.0mm1.1km/hWSW3.2km/h0uvi
21.01.2019 07:05-4.7°C-4.7°C-4.7°C78.0%1016.0hPa0.0mm0.5km/hNW4.3km/h0uvi
21.01.2019 07:10-4.5°C-4.5°C-4.6°C78.8%1016.0hPa0.0mm1.9km/hNW4.0km/h0uvi
21.01.2019 07:15-4.5°C-4.4°C-4.5°C79.0%1016.0hPa0.0mm0.0km/hWSW1.8km/h0uvi
21.01.2019 07:20-4.4°C-4.4°C-4.4°C78.0%1016.0hPa0.0mm0.2km/hWSW2.2km/h0uvi
21.01.2019 07:25-4.4°C-4.3°C-4.4°C78.0%1016.0hPa0.0mm0.3km/hNW2.5km/h0uvi
21.01.2019 07:30-4.2°C-4.2°C-4.3°C78.0%1016.0hPa0.0mm3.2km/hSSW5.8km/h0uvi
21.01.2019 07:35-4.2°C-4.1°C-4.2°C78.0%1016.0hPa0.0mm0.3km/hWSW2.2km/h0uvi
21.01.2019 07:40-4.1°C-4.1°C-4.1°C77.5%1016.0hPa0.0mm1.3km/hWSW3.2km/h0uvi
21.01.2019 07:45-4.1°C-4.1°C-4.1°C77.0%1016.0hPa0.0mm1.5km/hWSW3.6km/h0uvi
21.01.2019 07:50-4.0°C-4.0°C-4.1°C76.6%1016.0hPa0.0mm1.8km/hWSW4.0km/h0uvi
21.01.2019 07:55-4.0°C-4.0°C-4.0°C76.0%1016.0hPa0.0mm2.1km/hSSW4.0km/h0uvi
21.01.2019 08:00-3.9°C-3.9°C-4.0°C75.4%1016.0hPa0.0mm2.4km/hWSW5.0km/h0uvi
21.01.2019 08:05-3.9°C-3.9°C-3.9°C75.0%1016.0hPa0.0mm3.2km/hSSW6.1km/h0uvi
21.01.2019 08:10-3.8°C-3.8°C-3.9°C75.0%1016.0hPa0.0mm3.9km/hSSW6.1km/h0uvi
21.01.2019 08:15-3.7°C-3.7°C-3.7°C75.0%1016.1hPa0.0mm0.5km/hNW2.2km/h0uvi
21.01.2019 08:20-3.6°C-3.6°C-3.7°C75.0%1017.0hPa0.0mm0.4km/hNW2.2km/h0uvi
21.01.2019 08:25-3.5°C-3.5°C-3.6°C75.0%1017.0hPa0.0mm0.0km/hWNW1.4km/h0uvi
21.01.2019 08:30-3.5°C-3.5°C-3.5°C74.0%1017.0hPa0.0mm0.0km/hWNW1.4km/h0uvi
21.01.2019 08:35-3.5°C-3.5°C-3.6°C74.0%1017.0hPa0.0mm0.4km/hWSW2.5km/h0uvi
21.01.2019 08:40-3.6°C-3.6°C-3.6°C74.0%1017.0hPa0.0mm0.7km/hNW2.2km/h0uvi
21.01.2019 08:45-3.5°C-3.5°C-3.5°C74.0%1017.0hPa0.0mm0.8km/hNW2.2km/h0uvi
21.01.2019 08:50-3.5°C-3.5°C-3.5°C74.0%1017.0hPa0.0mm0.5km/hNW2.2km/h0uvi
21.01.2019 08:55-3.5°C-3.4°C-3.5°C74.0%1017.0hPa0.0mm0.1km/hNW1.8km/h0uvi
21.01.2019 09:00-3.4°C-3.3°C-3.4°C74.0%1017.0hPa0.0mm0.9km/hNW2.5km/h0uvi
21.01.2019 09:05-3.3°C-3.3°C-3.3°C74.0%1017.0hPa0.0mm0.2km/hWSW3.2km/h0uvi
21.01.2019 09:10-3.2°C-3.2°C-3.2°C74.8%1017.0hPa0.0mm0.0km/hNW1.8km/h0uvi
21.01.2019 09:15-3.1°C-3.1°C-3.1°C75.0%1017.0hPa0.0mm0.5km/hNW3.6km/h0uvi
21.01.2019 09:20-3.0°C-2.9°C-3.0°C74.8%1017.0hPa0.0mm0.5km/hWSW2.5km/h0uvi
21.01.2019 09:25-2.9°C-2.8°C-2.9°C74.0%1017.0hPa0.0mm1.5km/hWSW2.5km/h0uvi
21.01.2019 09:30-2.8°C-2.7°C-2.8°C74.0%1017.0hPa0.0mm0.4km/hWNW4.3km/h0uvi
21.01.2019 09:35-2.6°C-2.6°C-2.7°C73.0%1017.0hPa0.0mm1.4km/hWSW2.5km/h0uvi
21.01.2019 09:40-2.5°C-2.5°C-2.6°C73.0%1017.0hPa0.0mm0.3km/hWNW2.5km/h0uvi
21.01.2019 09:45-2.4°C-2.4°C-2.4°C72.2%1017.0hPa0.0mm0.0km/hWNW1.4km/h0uvi
21.01.2019 09:50-2.3°C-2.3°C-2.3°C72.0%1017.0hPa0.0mm1.2km/hWSW4.3km/h0uvi
21.01.2019 09:55-2.2°C-2.2°C-2.3°C71.4%1017.0hPa0.0mm1.4km/hNW3.6km/h0uvi
21.01.2019 10:00-2.2°C-2.2°C-2.2°C71.0%1017.0hPa0.0mm0.6km/hWSW1.8km/h0uvi
21.01.2019 10:05-2.0°C-2.0°C-2.1°C69.8%1017.0hPa0.0mm1.2km/hWSW4.3km/h0uvi
21.01.2019 10:10-1.9°C-1.9°C-2.0°C69.0%1017.0hPa0.0mm1.7km/hWSW3.6km/h0uvi
21.01.2019 10:15-1.8°C-1.8°C-1.9°C68.0%1017.0hPa0.0mm1.4km/hWSW3.6km/h0uvi
21.01.2019 10:20-1.7°C-1.7°C-1.7°C67.4%1017.0hPa0.0mm2.0km/hWSW5.4km/h0uvi
21.01.2019 10:25-1.6°C-1.6°C-1.6°C66.7%1017.0hPa0.0mm1.6km/hWSW5.4km/h0uvi
21.01.2019 10:30-1.5°C-1.5°C-1.5°C66.0%1017.0hPa0.0mm0.7km/hWSW2.5km/h0uvi
21.01.2019 10:35-1.4°C-1.4°C-1.4°C64.6%1017.0hPa0.0mm1.9km/hWSW4.7km/h0uvi
21.01.2019 10:40-1.3°C-1.3°C-1.4°C63.0%1017.0hPa0.0mm1.7km/hWSW4.0km/h0uvi
21.01.2019 10:45-1.2°C-1.1°C-1.2°C61.0%1017.1hPa0.0mm1.3km/hWSW4.0km/h0uvi
21.01.2019 10:50-1.1°C-1.0°C-1.1°C60.5%1018.0hPa0.0mm2.2km/hWSW4.3km/h0uvi
21.01.2019 10:55-1.0°C-0.9°C-1.0°C59.0%1018.0hPa0.0mm2.6km/hSSW4.0km/h0uvi
21.01.2019 11:00-0.8°C-0.8°C-0.9°C59.0%1018.0hPa0.0mm1.3km/hWSW3.6km/h0uvi
21.01.2019 11:05-0.7°C-0.7°C-0.7°C59.0%1017.0hPa0.0mm0.5km/hWSW2.5km/h0uvi
21.01.2019 11:10-0.5°C-0.5°C-0.5°C58.0%1017.0hPa0.0mm1.0km/hNW4.0km/h0uvi
21.01.2019 11:15-0.4°C-0.4°C-0.4°C58.0%1016.9hPa0.0mm0.5km/hNW2.5km/h0uvi
21.01.2019 11:20-0.3°C-0.3°C-0.3°C57.0%1016.0hPa0.0mm1.7km/hWSW6.8km/h0uvi
21.01.2019 11:25-0.2°C-0.2°C-0.2°C57.0%1016.0hPa0.0mm0.4km/hNW3.2km/h0uvi
21.01.2019 11:30-0.2°C-0.1°C-0.2°C57.0%1016.0hPa0.0mm0.0km/hWSW2.2km/h0uvi
21.01.2019 11:35-0.1°C-0.1°C-0.1°C56.2%1016.0hPa0.0mm1.1km/hWSW4.0km/h0uvi
21.01.2019 11:400.0°C0.0°C0.0°C55.5%1016.0hPa0.0mm0.6km/hWSW2.2km/h0uvi
21.01.2019 11:450.1°C0.1°C0.0°C55.3%1016.0hPa0.0mm0.4km/hWSW3.2km/h0uvi
21.01.2019 11:500.1°C0.1°C0.1°C55.0%1016.0hPa0.0mm1.0km/hWSW2.2km/h0uvi
21.01.2019 11:550.1°C0.2°C0.1°C54.7%1016.0hPa0.0mm1.5km/hWSW3.6km/h0uvi
21.01.2019 12:000.3°C0.3°C0.3°C53.5%1016.0hPa0.0mm1.6km/hWSW3.6km/h0uvi
21.01.2019 12:050.3°C0.3°C0.3°C50.2%1016.0hPa0.0mm2.8km/hWSW5.4km/h0uvi
21.01.2019 12:100.3°C0.3°C0.3°C51.7%1016.0hPa0.0mm1.5km/hWSW2.5km/h0uvi
21.01.2019 12:150.3°C0.3°C0.3°C52.3%1015.9hPa0.0mm0.9km/hWSW4.0km/h0uvi
21.01.2019 12:200.4°C0.4°C0.4°C52.0%1015.0hPa0.0mm1.8km/hWSW3.2km/h0uvi
21.01.2019 12:250.4°C0.4°C0.4°C52.4%1015.0hPa0.0mm0.3km/hWNW2.2km/h0uvi
21.01.2019 12:300.4°C0.4°C0.4°C53.0%1015.2hPa0.0mm0.0km/hWSW1.8km/h0uvi
21.01.2019 12:350.4°C0.4°C0.4°C53.0%1017.0hPa0.0mm0.0km/hNE2.2km/h0uvi
21.01.2019 12:400.4°C0.4°C0.4°C52.8%1017.0hPa0.0mm0.0km/hWSW3.6km/h0uvi
21.01.2019 12:450.5°C0.5°C0.4°C52.0%1016.9hPa0.0mm2.1km/hWSW5.4km/h0uvi
21.01.2019 12:500.5°C0.5°C0.5°C52.0%1016.0hPa0.0mm0.7km/hWSW2.5km/h
21.01.2019 12:550.6°C0.6°C0.6°C51.3%1016.0hPa0.0mm1.0km/hWSW3.2km/h0uvi
21.01.2019 13:000.6°C0.7°C0.6°C50.5%1016.0hPa0.0mm1.4km/hWSW3.6km/h0uvi
21.01.2019 13:050.7°C0.7°C0.7°C50.4%1016.0hPa0.0mm1.0km/hSSW4.0km/h0uvi
21.01.2019 13:100.7°C0.7°C0.7°C48.0%1016.0hPa0.0mm2.4km/hSSW4.0km/h0uvi
21.01.2019 13:150.8°C0.8°C0.7°C49.0%1015.9hPa0.0mm2.5km/hSSW4.7km/h0uvi
21.01.2019 13:200.8°C0.9°C0.8°C49.0%1015.0hPa0.0mm2.2km/hSSW4.0km/h0uvi
21.01.2019 13:250.9°C0.9°C0.9°C49.5%1015.0hPa0.0mm0.7km/hSSW2.2km/h0uvi
21.01.2019 13:301.0°C1.0°C0.9°C48.8%1015.0hPa0.0mm1.0km/hSSW3.2km/h0uvi
21.01.2019 13:351.1°C1.1°C1.0°C47.0%1015.0hPa0.0mm2.3km/hSSW4.3km/h0uvi
21.01.2019 13:401.2°C1.3°C1.1°C46.2%1015.0hPa0.0mm2.6km/hSSW5.0km/h0uvi
21.01.2019 13:451.4°C1.4°C1.3°C45.4%1015.0hPa0.0mm2.8km/hSSW5.0km/h0uvi
21.01.2019 13:501.6°C1.7°C1.5°C45.8%1015.0hPa0.0mm1.9km/hSSW3.6km/h0uvi
21.01.2019 13:551.9°C2.0°C1.8°C45.0%1015.0hPa0.0mm2.3km/hSSE4.3km/h0uvi
21.01.2019 14:002.2°C2.3°C2.1°C45.0%1015.0hPa0.0mm0.8km/hSSE4.7km/h0uvi
21.01.2019 14:052.5°C2.5°C2.4°C44.6%1014.1hPa0.0mm1.0km/hENE2.5km/h0uvi
21.01.2019 14:102.5°C2.5°C2.4°C44.7%1014.0hPa0.0mm0.1km/hWSW1.4km/h0uvi
21.01.2019 14:152.7°C2.8°C2.6°C45.0%1013.9hPa0.0mm1.1km/hSSE2.5km/h0uvi
21.01.2019 14:202.8°C2.9°C2.8°C44.4%1013.0hPa0.0mm1.1km/hNE2.5km/h0uvi
21.01.2019 14:253.0°C3.0°C2.9°C43.8%1013.0hPa0.0mm1.2km/hSSW4.0km/h0uvi
21.01.2019 14:303.0°C3.0°C2.9°C43.0%1013.0hPa0.0mm0.7km/hSSW3.2km/h0uvi
21.01.2019 14:353.0°C3.0°C2.9°C43.0%1014.0hPa0.0mm0.6km/hSSW3.2km/h0uvi
21.01.2019 14:403.0°C3.0°C3.0°C43.0%1014.0hPa0.0mm1.0km/hNE2.5km/h0uvi
21.01.2019 14:453.0°C3.0°C3.0°C42.6%1014.0hPa0.0mm0.7km/hNE2.5km/h0uvi
21.01.2019 14:503.0°C3.0°C3.0°C42.7%1014.0hPa0.0mm0.7km/hSSE3.6km/h0uvi
21.01.2019 14:553.1°C3.1°C3.1°C42.8%1014.0hPa0.0mm0.3km/hSSE2.5km/h0uvi
21.01.2019 15:003.2°C3.2°C3.2°C42.4%1014.0hPa0.0mm1.2km/hSSE3.6km/h0uvi
21.01.2019 15:053.2°C3.3°C3.2°C42.0%1014.0hPa0.0mm0.0km/hSSE1.8km/h0uvi
21.01.2019 15:103.3°C3.3°C3.3°C42.0%1014.0hPa0.0mm1.2km/hSSW2.5km/h0uvi
21.01.2019 15:153.2°C3.3°C3.1°C42.0%1014.0hPa0.0mm0.0km/hSSW2.2km/h0uvi
21.01.2019 15:203.0°C3.1°C3.0°C42.0%1014.0hPa0.0mm0.3km/hSSW1.8km/h0uvi
21.01.2019 15:252.9°C3.0°C2.8°C42.0%1014.0hPa0.0mm0.9km/hSSW3.2km/h0uvi
21.01.2019 15:302.6°C2.7°C2.6°C42.8%1014.0hPa0.0mm1.0km/hSSW2.2km/h0uvi
21.01.2019 15:352.5°C2.5°C2.4°C43.0%1014.0hPa0.0mm1.2km/hSSW2.2km/h0uvi
21.01.2019 15:402.2°C2.3°C2.1°C43.0%1014.0hPa0.0mm1.9km/hSSW3.2km/h0uvi
21.01.2019 15:452.0°C2.1°C2.0°C43.0%1014.0hPa0.0mm2.4km/hSSW4.0km/h0uvi
21.01.2019 15:501.7°C1.7°C1.7°C44.0%1014.0hPa0.0mm0.6km/hWSW2.5km/h0uvi
21.01.2019 15:551.6°C1.6°C1.6°C44.0%1014.0hPa0.0mm0.0km/hWSW1.4km/h0uvi
21.01.2019 16:001.6°C1.6°C1.5°C44.0%1014.0hPa0.0mm0.0km/hSSW1.8km/h0uvi
21.01.2019 16:051.4°C1.4°C1.4°C44.0%1014.0hPa0.0mm0.8km/hSSE2.2km/h0uvi
21.01.2019 16:101.4°C1.4°C1.4°C44.8%1014.0hPa0.0mm2.1km/hSSW4.0km/h0uvi
21.01.2019 16:151.4°C1.4°C1.3°C45.0%1014.0hPa0.0mm1.6km/hSSE5.0km/h0uvi
21.01.2019 16:201.3°C1.3°C1.3°C45.5%1014.0hPa0.0mm0.5km/hNE2.5km/h0uvi
21.01.2019 16:251.2°C1.3°C1.2°C46.0%1014.0hPa0.0mm0.4km/hNE2.5km/h0uvi
21.01.2019 16:301.0°C1.1°C1.0°C45.3%1014.0hPa0.0mm0.6km/hSE1.8km/h0uvi
21.01.2019 16:351.0°C1.0°C0.9°C45.6%1014.0hPa0.0mm0.0km/hSE1.4km/h0uvi
21.01.2019 16:400.9°C0.9°C0.8°C46.0%1014.0hPa0.0mm0.2km/hSSE1.8km/h0uvi
21.01.2019 16:450.8°C0.8°C0.7°C46.0%1014.0hPa0.0mm0.3km/hSSE1.8km/h0uvi
21.01.2019 16:500.7°C0.7°C0.7°C46.0%1014.0hPa0.0mm0.0km/hSSE0.0km/h0uvi
21.01.2019 16:550.6°C0.6°C0.6°C46.0%1014.0hPa0.0mm0.0km/hSSE1.4km/h0uvi
21.01.2019 17:000.4°C0.5°C0.4°C46.0%1014.0hPa0.0mm0.0km/hENE1.4km/h0uvi
21.01.2019 17:050.3°C0.4°C0.3°C47.0%1014.0hPa0.0mm0.0km/hSSE0.0km/h0uvi
21.01.2019 17:100.2°C0.3°C0.1°C47.4%1014.0hPa0.0mm0.0km/hSSE0.0km/h0uvi
21.01.2019 17:150.1°C0.1°C0.1°C48.0%1014.0hPa0.0mm0.0km/hS0.0km/h0uvi
21.01.2019 17:200.1°C0.1°C0.0°C49.0%1014.0hPa0.0mm0.2km/hS1.4km/h0uvi
21.01.2019 17:250.0°C0.0°C0.0°C49.2%1014.0hPa0.0mm0.4km/hSSW1.8km/h0uvi
21.01.2019 17:30-0.2°C-0.1°C-0.2°C50.0%1014.0hPa0.0mm0.1km/hSSW0.0km/h0uvi
21.01.2019 17:35-0.3°C-0.3°C-0.3°C50.0%1014.0hPa0.0mm0.4km/hSSW2.2km/h0uvi
21.01.2019 17:40-0.3°C-0.3°C-0.3°C51.0%1014.0hPa0.0mm0.3km/hSSW1.4km/h0uvi
21.01.2019 17:45-0.3°C-0.3°C-0.3°C51.0%1014.0hPa0.0mm0.0km/hSSW1.8km/h0uvi
21.01.2019 17:50-0.4°C-0.4°C-0.4°C52.0%1014.0hPa0.0mm0.0km/hSSW2.2km/h0uvi
21.01.2019 17:55-0.5°C-0.5°C-0.6°C52.0%1014.0hPa0.0mm0.0km/hWNW1.4km/h0uvi
21.01.2019 18:00-0.7°C-0.6°C-0.7°C52.0%1014.0hPa0.0mm0.0km/hWNW1.4km/h0uvi
21.01.2019 18:05-0.7°C-0.7°C-0.7°C52.0%1014.0hPa0.0mm0.0km/hWSW1.8km/h0uvi
21.01.2019 18:10-0.7°C-0.7°C-0.8°C53.0%1014.0hPa0.0mm1.1km/hSSW1.8km/h0uvi
21.01.2019 18:15-0.8°C-0.8°C-0.8°C53.0%1014.0hPa0.0mm0.4km/hSSW2.2km/h0uvi
21.01.2019 18:20-0.9°C-0.9°C-0.9°C53.0%1014.0hPa0.0mm0.0km/hSW0.0km/h0uvi
21.01.2019 18:25-1.0°C-1.0°C-1.0°C54.0%1014.0hPa0.0mm0.0km/hW0.0km/h0uvi
21.01.2019 18:30-1.0°C-1.0°C-1.0°C54.0%1014.0hPa0.0mm0.0km/hWSW0.0km/h0uvi
21.01.2019 18:35-1.0°C-1.0°C-1.0°C54.0%1014.0hPa0.0mm0.0km/hWSW1.8km/h0uvi
21.01.2019 18:40-1.0°C-1.0°C-1.0°C54.0%1014.0hPa0.0mm0.2km/hWSW1.8km/h0uvi
21.01.2019 18:45-1.0°C-1.0°C-1.1°C54.4%1014.0hPa0.0mm0.0km/hWSW1.4km/h0uvi
21.01.2019 18:50-1.0°C-1.0°C-1.1°C55.0%1014.0hPa0.0mm0.0km/hWSW2.2km/h0uvi
21.01.2019 18:55-1.0°C-1.0°C-1.0°C55.2%1014.0hPa0.0mm1.6km/hWSW2.2km/h0uvi
21.01.2019 19:00-1.1°C-1.1°C-1.2°C55.2%1014.0hPa0.0mm0.4km/hSSW1.8km/h0uvi
21.01.2019 19:05-1.2°C-1.2°C-1.3°C55.5%1014.0hPa0.0mm1.3km/hSSW2.5km/h0uvi
21.01.2019 19:10-1.4°C-1.3°C-1.4°C56.0%1014.0hPa0.0mm1.3km/hSSW2.5km/h0uvi
21.01.2019 19:15-1.5°C-1.4°C-1.5°C56.7%1014.0hPa0.0mm1.0km/hSSW2.2km/h0uvi
21.01.2019 19:20-1.6°C-1.6°C-1.6°C56.3%1014.0hPa0.0mm0.5km/hWSW2.2km/h0uvi
21.01.2019 19:25-1.6°C-1.6°C-1.7°C57.0%1014.0hPa0.0mm1.0km/hSSW2.5km/h0uvi
21.01.2019 19:30-1.7°C-1.7°C-1.8°C57.0%1014.0hPa0.0mm0.3km/hSSW1.8km/h0uvi
21.01.2019 19:35-1.8°C-1.8°C-1.8°C57.0%1014.0hPa0.0mm0.4km/hSSW2.2km/h0uvi
21.01.2019 19:40-1.8°C-1.8°C-1.9°C57.0%1014.0hPa0.0mm1.7km/hSSW2.5km/h0uvi
21.01.2019 19:45-1.9°C-1.9°C-1.9°C57.0%1014.0hPa0.0mm1.8km/hSSW2.2km/h0uvi
21.01.2019 19:50-2.0°C-1.9°C-2.0°C57.0%1014.0hPa0.0mm0.7km/hSSW2.2km/h0uvi
21.01.2019 19:55-2.0°C-2.0°C-2.1°C57.0%1014.0hPa0.0mm0.0km/hWSW0.0km/h0uvi
21.01.2019 20:00-2.1°C-2.1°C-2.1°C57.0%1014.0hPa0.0mm0.8km/hSSW1.8km/h0uvi
21.01.2019 20:05-2.1°C-2.1°C-2.1°C57.5%1014.0hPa0.0mm0.6km/hWSW2.2km/h0uvi
21.01.2019 20:10-2.2°C-2.1°C-2.2°C58.0%1014.0hPa0.0mm1.2km/hSSW2.5km/h0uvi
21.01.2019 20:15-2.2°C-2.2°C-2.3°C58.0%1014.0hPa0.0mm1.5km/hWSW2.5km/h0uvi
21.01.2019 20:20-2.3°C-2.3°C-2.3°C58.0%1014.0hPa0.0mm0.7km/hSSW2.2km/h0uvi
21.01.2019 20:25-2.4°C-2.3°C-2.4°C58.0%1014.0hPa0.0mm1.0km/hSSW2.5km/h0uvi
21.01.2019 20:30-2.5°C-2.5°C-2.5°C58.2%1014.0hPa0.0mm1.5km/hSSW3.2km/h0uvi
21.01.2019 20:35-2.5°C-2.5°C-2.5°C58.5%1014.0hPa0.0mm2.2km/hSSW4.0km/h0uvi
21.01.2019 20:40-2.5°C-2.5°C-2.5°C58.0%1014.0hPa0.0mm3.0km/hSSW4.7km/h0uvi
21.01.2019 20:45-2.5°C-2.5°C-2.5°C58.0%1013.8hPa0.0mm1.9km/hSSW4.0km/h0uvi
21.01.2019 20:50-2.5°C-2.5°C-2.5°C58.0%1013.0hPa0.0mm1.1km/hWSW1.8km/h0uvi
21.01.2019 20:55-2.5°C-2.5°C-2.5°C58.0%1013.0hPa0.0mm0.0km/hWSW1.8km/h0uvi
21.01.2019 21:00-2.5°C-2.5°C-2.5°C58.0%1013.2hPa0.0mm0.0km/hWSW0.0km/h0uvi
21.01.2019 21:05-2.5°C-2.5°C-2.5°C58.0%1014.0hPa0.0mm1.1km/hWSW3.2km/h0uvi
21.01.2019 21:10-2.6°C-2.5°C-2.7°C58.0%1014.0hPa0.0mm1.5km/hWSW2.5km/h0uvi
21.01.2019 21:15-2.8°C-2.7°C-2.8°C58.0%1014.0hPa0.0mm0.6km/hWSW1.4km/h0uvi
21.01.2019 21:20-2.8°C-2.8°C-2.9°C58.0%1014.0hPa0.0mm0.3km/hWSW3.6km/h0uvi
21.01.2019 21:25-2.9°C-2.9°C-2.9°C59.0%1014.0hPa0.0mm1.5km/hWSW2.2km/h0uvi
21.01.2019 21:30-3.0°C-3.0°C-3.0°C60.0%1014.0hPa0.0mm2.1km/hWSW4.3km/h0uvi
21.01.2019 21:35-3.0°C-3.0°C-3.1°C61.0%1014.0hPa0.0mm2.0km/hSSW4.0km/h0uvi
21.01.2019 21:40-3.2°C-3.1°C-3.3°C61.6%1014.0hPa0.0mm3.1km/hSSW4.7km/h0uvi
21.01.2019 21:45-3.3°C-3.3°C-3.3°C62.0%1013.9hPa0.0mm0.9km/hWSW2.2km/h0uvi
21.01.2019 21:50-3.3°C-3.3°C-3.3°C61.0%1013.0hPa0.0mm0.0km/hW1.4km/h0uvi
21.01.2019 21:55-3.3°C-3.3°C-3.3°C61.0%1013.0hPa0.0mm0.0km/hNW1.4km/h0uvi
21.01.2019 22:00-3.3°C-3.3°C-3.3°C61.0%1013.2hPa0.0mm0.0km/hWSW1.8km/h0uvi
21.01.2019 22:05-3.4°C-3.3°C-3.4°C61.0%1014.0hPa0.0mm0.0km/hWSW1.8km/h0uvi
21.01.2019 22:10-3.4°C-3.4°C-3.4°C61.3%1014.0hPa0.0mm0.7km/hSSW2.5km/h0uvi
21.01.2019 22:15-3.5°C-3.5°C-3.6°C63.0%1014.0hPa0.0mm1.9km/hSSW2.2km/h0uvi
21.01.2019 22:20-3.6°C-3.6°C-3.6°C63.0%1014.0hPa0.0mm0.3km/hSSW2.2km/h0uvi
21.01.2019 22:25-3.6°C-3.6°C-3.6°C63.2%1014.0hPa0.0mm1.4km/hSSW3.2km/h0uvi
21.01.2019 22:30-3.6°C-3.6°C-3.6°C64.0%1014.0hPa0.0mm2.2km/hSSW3.6km/h0uvi
21.01.2019 22:35-3.7°C-3.6°C-3.7°C64.0%1014.0hPa0.0mm1.1km/hWSW2.2km/h0uvi
21.01.2019 22:40-3.7°C-3.7°C-3.7°C63.2%1014.0hPa0.0mm0.0km/hWNW1.8km/h0uvi
21.01.2019 22:45-3.8°C-3.8°C-3.8°C63.0%1014.0hPa0.0mm0.0km/hWSW1.4km/h0uvi
21.01.2019 22:50-3.8°C-3.8°C-3.8°C63.0%1014.0hPa0.0mm0.2km/hWSW2.5km/h0uvi
21.01.2019 22:55-3.8°C-3.8°C-3.8°C63.6%1014.0hPa0.0mm1.0km/hWSW2.5km/h0uvi
21.01.2019 23:00-3.8°C-3.7°C-3.8°C64.0%1014.0hPa0.0mm1.1km/hWSW2.5km/h0uvi
21.01.2019 23:05-3.8°C-3.7°C-3.8°C64.0%1014.0hPa0.0mm1.2km/hSSW3.2km/h0uvi
21.01.2019 23:10-3.9°C-3.8°C-3.9°C65.0%1014.0hPa0.0mm2.1km/hSSW3.6km/h0uvi
21.01.2019 23:15-3.9°C-3.9°C-3.9°C65.0%1014.0hPa0.0mm2.0km/hWSW3.2km/h0uvi
21.01.2019 23:20-3.9°C-3.8°C-3.9°C66.0%1014.0hPa0.0mm1.7km/hWSW2.2km/h0uvi
21.01.2019 23:25-3.7°C-3.7°C-3.7°C65.7%1014.0hPa0.0mm0.0km/hWSW2.5km/h0uvi
21.01.2019 23:30-3.7°C-3.7°C-3.7°C65.0%1014.0hPa0.0mm1.8km/hWSW3.6km/h0uvi
21.01.2019 23:35-3.8°C-3.7°C-3.8°C64.5%1014.0hPa0.0mm0.6km/hWSW1.8km/h0uvi
21.01.2019 23:40-3.9°C-3.8°C-3.9°C64.0%1014.0hPa0.0mm0.0km/hW1.4km/h0uvi
21.01.2019 23:45-3.9°C-3.9°C-3.9°C63.5%1014.0hPa0.0mm0.7km/hWSW3.2km/h0uvi
21.01.2019 23:50-4.0°C-3.9°C-4.0°C64.4%1014.0hPa0.0mm0.9km/hWSW2.2km/h0uvi
21.01.2019 23:55-4.0°C-4.0°C-4.0°C64.0%1014.0hPa0.0mm0.3km/hWSW2.2km/h0uvi
22.01.2019 00:00-4.0°C-4.0°C-4.0°C65.2%1014.0hPa0.0mm1.9km/hSSW3.2km/h0uvi
22.01.2019 00:05-4.1°C-4.1°C-4.1°C66.7%1014.0hPa0.0mm2.4km/hSSW4.0km/h0uvi
22.01.2019 00:10-4.2°C-4.1°C-4.2°C67.0%1014.0hPa0.0mm2.0km/hSSW3.6km/h0uvi
22.01.2019 00:15-4.0°C-4.0°C-4.1°C67.0%1014.0hPa0.0mm0.0km/hWSW1.4km/h0uvi
22.01.2019 00:20-4.0°C-4.0°C-4.0°C66.2%1014.0hPa0.0mm0.3km/hWNW2.2km/h0uvi
22.01.2019 00:25-4.1°C-4.1°C-4.1°C65.5%1014.0hPa0.0mm0.6km/hWSW2.2km/h0uvi
22.01.2019 00:30-4.2°C-4.2°C-4.2°C65.5%1014.0hPa0.0mm1.4km/hWSW3.6km/h0uvi
22.01.2019 00:35-4.2°C-4.2°C-4.3°C66.2%1014.0hPa0.0mm1.5km/hWSW3.2km/h0uvi
22.01.2019 00:40-4.3°C-4.3°C-4.4°C67.0%1014.0hPa0.0mm1.7km/hSSW2.5km/h0uvi
22.01.2019 00:45-4.4°C-4.4°C-4.4°C67.0%1014.0hPa0.0mm1.7km/hSSW3.6km/h0uvi
22.01.2019 00:50-4.5°C-4.5°C-4.5°C68.7%1014.0hPa0.0mm2.2km/hWSW4.3km/h0uvi
22.01.2019 00:55-4.4°C-4.4°C-4.5°C69.2%1014.0hPa0.0mm2.0km/hWSW3.6km/h0uvi
22.01.2019 01:00-4.4°C-4.4°C-4.4°C70.0%1013.8hPa0.0mm2.0km/hWSW4.7km/h0uvi
22.01.2019 01:05-4.4°C-4.4°C-4.4°C70.0%1013.0hPa0.0mm1.3km/hWSW3.6km/h0uvi
22.01.2019 01:10-4.4°C-4.4°C-4.4°C69.4%1013.0hPa0.0mm0.3km/hWSW2.5km/h0uvi
22.01.2019 01:15-4.4°C-4.4°C-4.4°C69.3%1013.0hPa0.0mm1.5km/hWSW3.6km/h0uvi
22.01.2019 01:20-4.3°C-4.3°C-4.4°C70.0%1013.0hPa0.0mm1.6km/hWSW3.2km/h0uvi
22.01.2019 01:25-4.2°C-4.2°C-4.3°C70.0%1013.0hPa0.0mm1.3km/hWSW2.5km/h0uvi
22.01.2019 01:30-4.2°C-4.2°C-4.2°C70.0%1012.8hPa0.0mm0.8km/hWSW2.5km/h0uvi
22.01.2019 01:35-4.2°C-4.2°C-4.2°C69.0%1012.0hPa0.0mm0.0km/hW2.2km/h0uvi
22.01.2019 01:40-4.2°C-4.2°C-4.2°C68.7%1012.0hPa0.0mm0.0km/hWNW3.6km/h0uvi
22.01.2019 01:45-4.1°C-4.1°C-4.2°C68.3%1012.0hPa0.0mm0.9km/hWSW3.2km/h0uvi
22.01.2019 01:50-4.2°C-4.2°C-4.2°C68.0%1013.0hPa0.0mm2.7km/hWSW6.1km/h0uvi
22.01.2019 01:55-4.2°C-4.2°C-4.3°C67.4%1013.0hPa0.0mm1.6km/hWSW3.2km/h0uvi
22.01.2019 02:00-4.4°C-4.3°C-4.5°C67.0%1012.9hPa0.0mm1.0km/hWSW3.2km/h0uvi
22.01.2019 02:05-4.6°C-4.5°C-4.6°C67.0%1012.0hPa0.0mm0.0km/hWNW0.0km/h0uvi
22.01.2019 02:10-4.6°C-4.6°C-4.7°C67.0%1012.0hPa0.0mm0.0km/hWSW2.5km/h0uvi
22.01.2019 02:15-4.7°C-4.7°C-4.7°C67.4%1012.0hPa0.0mm1.9km/hSSW5.4km/h0uvi
22.01.2019 02:20-4.8°C-4.7°C-4.8°C69.0%1012.0hPa0.0mm3.0km/hSSW5.0km/h
22.01.2019 02:25-4.9°C-4.9°C-4.9°C69.0%1012.0hPa0.0mm2.5km/hSSW4.0km/h0uvi
22.01.2019 02:30-5.0°C-4.9°C-5.0°C70.0%1012.0hPa0.0mm2.1km/hWSW4.3km/h0uvi
22.01.2019 02:35-5.0°C-4.9°C-5.0°C71.4%1012.0hPa0.0mm2.0km/hWSW4.0km/h0uvi
22.01.2019 02:40-4.8°C-4.8°C-4.9°C73.0%1012.0hPa0.0mm2.0km/hWSW4.0km/h0uvi
22.01.2019 02:451012.0hPa1.4km/hWSW0.0km/h
22.01.2019 03:20-4.9°C-4.6°C-5.1°C71.0%1011.6hPa0.0mm1.4km/hWSW3.6km/h0uvi
22.01.2019 03:25-5.1°C-5.1°C-5.1°C72.0%1011.0hPa0.0mm0.4km/hWSW2.2km/h0uvi
22.01.2019 03:30-5.1°C-5.1°C-5.1°C72.0%1011.0hPa0.0mm0.0km/hWSW1.4km/h0uvi
22.01.2019 03:35-5.2°C-5.2°C-5.2°C71.0%1011.8hPa0.0mm0.0km/hWSW1.8km/h0uvi
22.01.2019 03:40-5.2°C-5.2°C-5.2°C71.2%1012.0hPa0.0mm0.5km/hWSW2.2km/h0uvi
22.01.2019 03:45-5.2°C-5.2°C-5.2°C72.0%1012.0hPa0.0mm0.6km/hWSW1.8km/h0uvi
22.01.2019 03:50-5.2°C-5.1°C-5.2°C73.0%1012.0hPa0.0mm1.5km/hWSW2.5km/h0uvi
22.01.2019 03:55-5.1°C-5.1°C-5.1°C73.7%1012.0hPa0.0mm1.7km/hWSW4.0km/h0uvi
22.01.2019 04:00-5.1°C-5.1°C-5.1°C74.0%1012.0hPa0.0mm0.3km/hWSW2.5km/h0uvi
22.01.2019 04:05-5.1°C-5.1°C-5.2°C74.0%1012.0hPa0.0mm0.9km/hWSW2.5km/h0uvi
22.01.2019 04:10-5.2°C-5.2°C-5.2°C73.2%1012.0hPa0.0mm0.3km/hWSW2.5km/h0uvi
22.01.2019 04:15-5.2°C-5.2°C-5.2°C73.0%1012.0hPa0.0mm2.0km/hWSW3.6km/h0uvi
22.01.2019 04:20-5.3°C-5.3°C-5.3°C73.5%1012.0hPa0.0mm1.7km/hWSW2.5km/h0uvi
22.01.2019 04:25-5.3°C-5.2°C-5.3°C74.0%1012.0hPa0.0mm0.3km/hWSW2.2km/h0uvi
22.01.2019 04:30-5.3°C-5.2°C-5.3°C73.2%1011.9hPa0.0mm0.0km/hW1.8km/h0uvi
22.01.2019 04:35-5.3°C-5.3°C-5.3°C73.0%1011.0hPa0.0mm1.7km/hWSW2.5km/h0uvi
22.01.2019 04:40-5.4°C-5.3°C-5.4°C73.8%1011.0hPa0.0mm1.5km/hWSW4.0km/h0uvi
22.01.2019 04:45-5.5°C-5.5°C-5.5°C74.0%1011.0hPa0.0mm3.4km/hSSW4.7km/h0uvi
22.01.2019 04:50-5.4°C-5.4°C-5.5°C74.7%1011.0hPa0.0mm0.8km/hWSW2.5km/h0uvi
22.01.2019 04:55-5.4°C-5.4°C-5.4°C75.0%1011.0hPa0.0mm0.0km/hWSW2.2km/h0uvi
22.01.2019 05:00-5.5°C-5.4°C-5.5°C74.0%1011.0hPa0.0mm0.3km/hWSW1.8km/h0uvi
22.01.2019 05:05-5.6°C-5.6°C-5.6°C74.0%1011.0hPa0.0mm0.4km/hWSW1.8km/h0uvi
22.01.2019 05:10-5.6°C-5.6°C-5.6°C73.2%1011.0hPa0.0mm0.9km/hWSW2.2km/h0uvi
22.01.2019 05:15-5.6°C-5.6°C-5.7°C74.0%1011.0hPa0.0mm1.6km/hSSW3.2km/h0uvi
22.01.2019 05:20-5.7°C-5.7°C-5.7°C74.0%1011.0hPa0.0mm1.9km/hWSW4.0km/h0uvi
22.01.2019 05:25-5.7°C-5.7°C-5.7°C75.0%1011.0hPa0.0mm1.0km/hWSW1.8km/h0uvi
22.01.2019 05:30-5.7°C-5.7°C-5.8°C75.0%1011.0hPa0.0mm0.7km/hSSW2.5km/h0uvi
22.01.2019 05:35-5.8°C-5.8°C-5.8°C75.0%1011.0hPa0.0mm1.5km/hWSW2.5km/h0uvi
22.01.2019 05:40-5.8°C-5.8°C-5.8°C75.0%1011.0hPa0.0mm0.5km/hWSW1.8km/h0uvi
22.01.2019 05:45-5.8°C-5.8°C-5.8°C75.0%1011.0hPa0.0mm1.7km/hWSW2.5km/h0uvi
22.01.2019 05:50-5.8°C-5.8°C-5.8°C75.0%1011.0hPa0.0mm0.4km/hWSW2.5km/h0uvi
22.01.2019 05:55-5.7°C-5.7°C-5.8°C75.5%1011.0hPa0.0mm0.3km/hWSW2.5km/h0uvi
22.01.2019 06:00-5.7°C-5.6°C-5.7°C76.0%1011.0hPa0.0mm0.1km/hNW1.8km/h0uvi
22.01.2019 06:05-5.6°C-5.6°C-5.6°C76.0%1011.0hPa0.0mm0.9km/hWSW3.2km/h0uvi
22.01.2019 06:10-5.6°C-5.6°C-5.6°C76.0%1011.0hPa0.0mm2.4km/hSSW4.0km/h0uvi
22.01.2019 06:15-5.6°C-5.6°C-5.6°C76.0%1011.0hPa0.0mm1.3km/hWSW2.5km/h0uvi
22.01.2019 06:20-5.7°C-5.6°C-5.7°C76.0%1011.0hPa0.0mm2.4km/hWSW3.6km/h0uvi
22.01.2019 06:25-5.7°C-5.7°C-5.7°C76.0%1011.0hPa0.0mm0.6km/hWSW2.2km/h0uvi
22.01.2019 06:30-5.7°C-5.7°C-5.7°C76.0%1011.0hPa0.0mm0.5km/hWSW2.5km/h0uvi
22.01.2019 06:35-5.7°C-5.7°C-5.7°C76.0%1011.0hPa0.0mm1.8km/hWSW2.5km/h0uvi
22.01.2019 06:40-5.7°C-5.7°C-5.7°C76.0%1011.0hPa0.0mm1.4km/hWSW2.2km/h0uvi
22.01.2019 06:45-5.7°C-5.7°C-5.8°C76.0%1011.0hPa0.0mm1.7km/hSSW3.6km/h0uvi
22.01.2019 06:50-5.8°C-5.8°C-5.8°C76.0%1011.0hPa0.0mm2.0km/hWSW3.2km/h0uvi
22.01.2019 06:55-5.8°C-5.8°C-5.8°C76.0%1011.0hPa0.0mm0.8km/hWSW2.2km/h0uvi
22.01.2019 07:00-5.8°C-5.7°C-5.8°C76.0%1011.0hPa0.0mm0.0km/hWSW1.8km/h0uvi
22.01.2019 07:05-5.7°C-5.7°C-5.7°C76.0%1010.2hPa0.0mm1.0km/hWSW3.6km/h0uvi
22.01.2019 07:10-5.7°C-5.7°C-5.7°C76.0%1010.0hPa0.0mm0.7km/hWNW3.6km/h0uvi
22.01.2019 07:15-5.6°C-5.6°C-5.7°C76.0%1010.0hPa0.0mm0.8km/hWSW3.2km/h0uvi
22.01.2019 07:20-5.6°C-5.6°C-5.6°C77.0%1010.9hPa0.0mm0.6km/hWSW2.5km/h0uvi
22.01.2019 07:25-5.6°C-5.6°C-5.6°C77.0%1011.0hPa0.0mm1.3km/hWSW2.5km/h0uvi
22.01.2019 07:30-5.6°C-5.6°C-5.6°C76.0%1011.0hPa0.0mm0.0km/hWSW1.4km/h0uvi
22.01.2019 07:35-5.6°C-5.6°C-5.6°C76.0%1010.2hPa0.0mm1.1km/hWSW3.2km/h0uvi
22.01.2019 07:40-5.6°C-5.6°C-5.6°C75.2%1010.0hPa0.0mm0.5km/hWSW2.5km/h0uvi
22.01.2019 07:45-5.6°C-5.6°C-5.6°C75.0%1010.2hPa0.0mm0.8km/hWSW2.5km/h0uvi
22.01.2019 07:50-5.6°C-5.6°C-5.7°C75.2%1011.0hPa0.0mm2.2km/hSSW4.0km/h0uvi
22.01.2019 07:55-5.8°C-5.7°C-5.8°C75.0%1011.0hPa0.0mm1.9km/hWSW3.2km/h0uvi
22.01.2019 08:00-5.8°C-5.7°C-5.8°C75.0%1011.0hPa0.0mm1.1km/hWSW3.2km/h0uvi
22.01.2019 08:05-5.8°C-5.8°C-5.8°C75.0%1010.1hPa0.0mm1.7km/hSSW3.2km/h0uvi
22.01.2019 08:10-5.7°C-5.7°C-5.8°C76.0%1010.0hPa0.0mm0.5km/hWNW3.2km/h0uvi
22.01.2019 08:15-5.7°C-5.6°C-5.7°C76.0%1010.0hPa0.0mm0.1km/hWSW2.5km/h0uvi
22.01.2019 08:20-5.5°C-5.5°C-5.6°C76.5%1011.0hPa0.0mm1.4km/hWSW